Terminal Aerodrome Forecast
Issued by NWS

Home | Current Version | Previous Version | Text Only | Print | Product List | Glossary On
Versions: 1 2 3 4 5 6 7 8 9 10 11 12 13 14 15 16 17 18 19 20 21 22 23 24 25 26 27 28
000
FTUS46 KMTR 042342
TAFSFO
TAF
KSFO 042342Z 0500/0606 26016KT P6SM VCSH FEW020 SCT040 BKN180
     FM050600 26010KT P6SM BKN015
     FM051000 25007KT P6SM OVC010
     FM051500 23005KT P6SM BKN012
     FM051900 29012KT P6SM SCT015 BKN200
     FM060300 29009KT P6SM SCT015 BKN200=

USA.gov is the U.S. government's official web portal to all federal, state and local government web resources and services.